Time;durP1;ratioP1;P1;durP2;ratioP2;P2;SDS_P1;SDS_P2;PMS_P1;PMS_P2;Temp;Humidity;BMP_temperature;BMP_pressure;BME280_temperature;BME280_humidity;BME280_pressure;Samples;Min_cycle;Max_cycle;Signal;HPM_P1;HPM_P2
2021/04/25 00:00:48;;;;;;;9.82;6.38;;;;;;;16.26;50.26;72396.53;4945806;28;20026;-88
2021/04/25 00:03:15;;;;;;;20.92;7.47;;;;;;;16.14;49.48;72382.16;4958467;28;20054;-88
2021/04/25 00:05:42;;;;;;;10.15;6.55;;;;;;;16.54;49.68;72428.81;4957324;28;20035;-89
2021/04/25 00:08:09;;;;;;;11.43;5.97;;;;;;;17.28;49.11;72507.69;4957167;29;20533;-86
2021/04/25 00:10:36;;;;;;;9.32;6.95;;;;;;;17.30;49.27;72516.22;4957619;28;20027;-84
2021/04/25 00:13:03;;;;;;;11.93;6.68;;;;;;;16.51;49.68;72425.25;4953270;28;20481;-84
2021/04/25 00:15:30;;;;;;;9.23;6.38;;;;;;;16.34;49.48;72402.72;4954881;28;20034;-83
2021/04/25 00:17:57;;;;;;;9.00;5.75;;;;;;;16.23;48.99;72392.34;4937034;29;20042;-85
2021/04/25 00:20:24;;;;;;;8.85;7.30;;;;;;;17.36;48.91;72523.41;4963887;28;20519;-87
2021/04/25 00:22:51;;;;;;;11.43;6.82;;;;;;;17.18;48.47;72499.69;4963434;28;20027;-84
2021/04/25 00:25:19;;;;;;;12.60;6.43;;;;;;;17.12;48.72;72494.69;4958431;28;20031;-87
2021/04/25 00:27:47;;;;;;;7.70;6.75;;;;;;;17.40;48.59;72527.00;4975362;28;20113;-85
2021/04/25 00:30:17;;;;;;;11.15;7.10;;;;;;;17.14;48.78;72497.06;4939198;28;20462;-84
2021/04/25 00:32:46;;;;;;;10.90;7.80;;;;;;;16.98;48.35;72473.53;4948872;28;20026;-87
2021/04/25 00:35:14;;;;;;;11.70;8.35;;;;;;;16.72;48.80;72449.19;4943594;29;20429;-85
2021/04/25 00:37:41;;;;;;;9.23;7.03;;;;;;;17.54;48.33;72541.00;4938399;28;20027;-86
2021/04/25 00:40:11;;;;;;;9.50;7.40;;;;;;;17.78;48.75;72571.31;4957950;28;20019;-86
2021/04/25 00:42:38;;;;;;;11.80;7.20;;;;;;;17.61;48.04;72548.78;4938117;29;20058;-85
2021/04/25 00:45:08;;;;;;;11.23;7.03;;;;;;;17.46;47.63;72534.19;4954687;28;20480;-87
2021/04/25 00:47:35;;;;;;;;;;;;;;;18.16;47.35;72615.03;4958304;28;20031;-84
2021/04/25 00:50:02;;;;;;;13.77;7.75;;;;;;;18.23;47.45;72623.44;4945753;29;20012;-86
2021/04/25 00:52:29;;;;;;;12.20;7.80;;;;;;;18.06;47.34;72603.66;4950446;28;20465;-85
2021/04/25 00:54:57;;;;;;;18.65;8.55;;;;;;;15.95;48.17;72360.03;4952349;28;20038;-84
2021/04/25 00:57:24;;;;;;;12.02;7.60;;;;;;;17.15;48.63;72495.47;4957925;28;20035;-85
2021/04/25 00:59:54;;;;;;;13.82;9.18;;;;;;;16.74;47.69;72451.56;4949647;28;20044;-83
2021/04/25 01:02:21;;;;;;;13.10;7.97;;;;;;;16.79;47.26;72456.94;4950922;28;20392;-85
2021/04/25 01:04:48;;;;;;;13.30;7.95;;;;;;;17.89;47.27;72578.91;4951831;28;20059;-85
2021/04/25 01:07:15;;;;;;;12.07;7.35;;;;;;;17.96;46.97;72591.66;4937573;29;20397;-84
2021/04/25 01:09:44;;;;;;;11.18;7.50;;;;;;;16.87;46.56;72465.94;4951951;28;20019;-84
2021/04/25 01:12:11;;;;;;;11.83;6.90;;;;;;;18.03;47.44;72600.66;4938189;28;20496;-86
2021/04/25 01:14:38;;;;;;;15.93;8.63;;;;;;;17.43;46.68;72530.59;4964919;28;20030;-86
2021/04/25 01:17:05;;;;;;;16.38;7.63;;;;;;;17.78;46.61;72569.13;4946691;28;20437;-87
2021/04/25 01:19:32;;;;;;;12.00;7.15;;;;;;;18.07;46.92;72604.28;4966699;28;20232;-86
2021/04/25 01:21:59;;;;;;;14.75;7.68;;;;;;;17.92;46.34;72588.09;4974067;28;20528;-86
2021/04/25 01:24:26;;;;;;;11.27;7.68;;;;;;;17.80;46.02;72573.72;4973159;28;20034;-85
2021/04/25 01:26:53;;;;;;;13.88;8.32;;;;;;;16.50;45.53;72423.44;4973270;28;20039;-86
2021/04/25 01:29:20;;;;;;;20.50;8.43;;;;;;;16.94;45.98;72474.31;4973996;28;20547;-86
2021/04/25 01:31:47;;;;;;;16.95;8.25;;;;;;;16.92;46.87;72471.91;4987064;28;20441;-86
2021/04/25 01:34:13;;;;;;;13.40;7.90;;;;;;;16.94;47.17;72474.31;4973967;28;20062;-84
2021/04/25 01:36:40;;;;;;;10.07;6.97;;;;;;;17.83;46.39;72577.28;4974219;28;20034;-85
2021/04/25 01:39:07;;;;;;;12.00;7.20;;;;;;;17.50;45.83;72538.97;4974055;28;20027;-86
2021/04/25 01:41:34;;;;;;;16.45;7.07;;;;;;;18.38;46.23;72637.44;4956986;28;20104;-85
2021/04/25 01:44:02;;;;;;;11.98;7.25;;;;;;;17.73;46.76;72565.31;4973165;28;20026;-86
2021/04/25 01:46:29;;;;;;;17.10;6.85;;;;;;;17.56;46.47;72543.38;4972340;28;20039;-85
2021/04/25 01:48:56;;;;;;;11.63;6.70;;;;;;;18.33;45.83;72634.81;4979378;28;20128;-86
2021/04/25 01:51:23;;;;;;;17.85;7.15;;;;;;;17.90;45.98;72582.88;4975400;28;20057;-86
2021/04/25 01:53:50;;;;;;;25.33;7.72;;;;;;;17.46;45.50;72534.19;4971242;28;20030;-85
2021/04/25 01:56:17;;;;;;;10.20;6.43;;;;;;;18.26;44.49;72623.66;4972173;28;20065;-86
2021/04/25 01:58:44;;;;;;;11.18;7.35;;;;;;;17.84;44.81;72578.50;4957499;28;20480;-85
2021/04/25 02:01:10;;;;;;;13.07;6.95;;;;;;;17.97;45.20;72593.47;4973592;28;20055;-86
2021/04/25 02:03:38;;;;;;;10.10;7.07;;;;;;;17.76;45.55;72568.91;4957225;28;20419;-86
2021/04/25 02:06:05;;;;;;;11.90;7.45;;;;;;;18.17;44.95;72611.28;4957142;28;20049;-87
2021/04/25 02:08:33;;;;;;;11.50;7.50;;;;;;;18.05;45.43;72602.47;4976293;28;20011;-86
2021/04/25 02:10:59;;;;;;;17.45;8.25;;;;;;;17.16;44.79;72499.47;4973789;28;20034;-86
2021/04/25 02:13:26;;;;;;;11.77;6.75;;;;;;;18.36;44.76;72637.81;4973013;28;20647;-86
2021/04/25 02:15:53;;;;;;;13.50;7.72;;;;;;;18.55;44.44;72654.41;4972631;28;20396;-85
2021/04/25 02:18:20;;;;;;;15.77;9.00;;;;;;;18.44;45.12;72648.00;4973706;28;20031;-86
2021/04/25 02:20:47;;;;;;;13.85;6.35;;;;;;;18.28;44.55;72628.81;4971843;28;20138;-86
2021/04/25 02:23:14;;;;;;;15.43;8.38;;;;;;;18.90;43.94;72700.72;4971766;28;20073;-86
2021/04/25 02:25:41;;;;;;;9.15;5.97;;;;;;;18.27;44.15;72628.25;4971945;28;20023;-86
2021/04/25 02:28:10;;;;;;;13.38;7.60;;;;;;;18.95;43.20;72703.94;4972626;28;20030;-86
2021/04/25 02:30:38;;;;;;;14.05;7.97;;;;;;;19.05;43.98;72717.53;4956640;28;20035;-85
2021/04/25 02:33:05;;;;;;;10.98;7.70;;;;;;;19.27;42.98;72743.88;4973847;28;20491;-86
2021/04/25 02:35:33;;;;;;;15.07;8.32;;;;;;;18.99;43.61;72710.91;4976261;28;20480;-85
2021/04/25 02:38:00;;;;;;;12.57;7.15;;;;;;;18.68;43.65;72672.78;4975038;28;20031;-85
2021/04/25 02:40:30;;;;;;;13.73;7.30;;;;;;;17.60;43.57;72548.16;4968273;28;20033;-86
2021/04/25 02:42:58;;;;;;;8.68;7.03;;;;;;;18.56;43.54;72661.19;4982732;28;20054;-85
2021/04/25 02:45:27;;;;;;;13.57;6.75;;;;;;;18.13;43.38;72612.03;4976197;28;20033;-87
2021/04/25 02:48:06;;;;;;;12.52;8.50;;;;;;;18.12;43.49;72608.06;4982650;28;20041;-85
2021/04/25 02:50:37;;;;;;;9.40;6.83;;;;;;;18.53;43.46;72658.19;4974045;28;20030;-86
2021/04/25 02:53:06;;;;;;;19.40;8.85;;;;;;;17.94;43.33;72589.28;4968655;28;20410;-86
2021/04/25 02:55:33;;;;;;;10.80;7.73;;;;;;;17.85;43.41;72573.53;4967206;28;20043;-87
2021/04/25 02:58:01;;;;;;;13.48;8.43;;;;;;;18.24;43.22;72624.03;4966123;28;20030;-86
2021/04/25 03:00:29;;;;;;;12.88;7.20;;;;;;;19.10;43.27;72721.34;4943309;28;20038;-86
2021/04/25 03:02:57;;;;;;;13.52;7.47;;;;;;;18.43;42.72;72646.78;4967654;28;20055;-87
2021/04/25 03:05:25;;;;;;;12.00;6.90;;;;;;;18.93;43.09;72701.53;4971836;28;20038;-88
2021/04/25 03:07:53;;;;;;;9.63;7.20;;;;;;;19.69;43.02;72792.44;4955201;29;20035;-87
2021/04/25 03:10:22;;;;;;;10.70;7.78;;;;;;;18.62;42.76;72667.75;4955687;28;20038;-88
2021/04/25 03:12:50;;;;;;;9.90;5.80;;;;;;;19.80;42.72;72804.47;4959444;28;20022;-88
2021/04/25 03:15:18;;;;;;;10.65;6.80;;;;;;;19.80;42.15;72799.47;4964944;28;20031;-88
2021/04/25 03:17:46;;;;;;;10.93;7.60;;;;;;;19.13;41.53;72727.09;4969058;28;20110;-86
2021/04/25 03:20:15;;;;;;;16.13;7.55;;;;;;;18.73;41.39;72681.53;4978359;28;20050;-92
2021/04/25 03:22:44;;;;;;;12.30;7.30;;;;;;;18.88;41.63;72695.53;4976178;28;20038;-91
2021/04/25 03:25:13;;;;;;;9.83;6.20;;;;;;;19.36;41.95;72750.69;4977732;28;20023;-86
2021/04/25 03:27:40;;;;;;;14.57;6.82;;;;;;;18.97;41.62;72709.09;4974127;28;20344;-92
2021/04/25 03:30:09;;;;;;;7.93;6.68;;;;;;;19.33;41.92;72750.50;4977317;28;20807;-93
2021/04/25 03:32:38;;;;;;;10.30;6.97;;;;;;;19.62;42.10;72780.69;4974298;28;20118;-89
2021/04/25 03:35:07;;;;;;;8.57;6.15;;;;;;;19.68;41.57;72788.47;4960439;28;20039;-88
2021/04/25 03:37:34;;;;;;;11.35;6.93;;;;;;;19.80;41.23;72802.25;4972888;28;20388;-87
2021/04/25 03:40:01;;;;;;;12.23;7.97;;;;;;;19.54;40.56;72774.47;4975641;28;20011;-89
2021/04/25 03:42:28;;;;;;;9.40;6.97;;;;;;;19.12;41.08;72725.91;4957691;28;20039;-82
2021/04/25 03:44:55;;;;;;;12.40;7.43;;;;;;;18.63;40.30;72668.97;4971815;28;20126;-86
2021/04/25 03:47:21;;;;;;;16.60;8.10;;;;;;;19.27;40.85;72743.88;4954767;28;20015;-86
2021/04/25 03:49:48;;;;;;;13.55;7.85;;;;;;;19.08;40.32;72718.34;4948170;28;20037;-86
2021/04/25 03:52:15;;;;;;;10.05;6.68;;;;;;;18.96;40.50;72707.91;4952159;28;20029;-84
2021/04/25 03:54:42;;;;;;;11.05;6.38;;;;;;;19.03;40.82;72715.13;4970884;28;20038;-85
2021/04/25 03:57:09;;;;;;;7.55;6.75;;;;;;;19.68;40.67;72788.47;4969629;28;20031;-83
2021/04/25 03:59:36;;;;;;;8.13;6.22;;;;;;;19.55;40.33;72775.69;4971031;28;20126;-87
2021/04/25 04:02:03;;;;;;;11.18;6.47;;;;;;;19.91;39.97;72817.06;4964128;28;20041;-85
2021/04/25 04:04:30;;;;;;;11.07;6.88;;;;;;;20.00;40.23;72827.25;4971505;28;20069;-88
2021/04/25 04:06:57;;;;;;;9.65;7.50;;;;;;;19.77;40.07;72801.44;4975435;28;20045;-86
2021/04/25 04:09:24;;;;;;;12.75;8.25;;;;;;;19.64;39.77;72786.47;4980333;28;20081;-88
2021/04/25 04:11:51;;;;;;;10.48;6.80;;;;;;;20.10;39.96;72839.25;4981519;28;20034;-82
2021/04/25 04:14:17;;;;;;;10.10;6.75;;;;;;;20.33;39.96;72860.66;4975328;28;20023;-86
2021/04/25 04:16:44;;;;;;;8.88;6.32;;;;;;;19.66;39.84;72786.06;4974861;28;20065;-86
2021/04/25 04:19:11;;;;;;;9.02;6.78;;;;;;;19.51;39.27;72768.69;4981522;28;20039;-88
2021/04/25 04:21:38;;;;;;;9.18;6.60;;;;;;;19.90;39.46;72816.44;4975676;28;20022;-87
2021/04/25 04:24:05;;;;;;;9.75;7.13;;;;;;;20.56;41.96;72892.03;4973549;28;20669;-87
2021/04/25 04:26:44;;;;;;;16.35;9.55;;;;;;;19.09;43.98;72722.31;4974847;28;20085;-88
2021/04/25 04:29:24;;;;;;;18.65;10.63;;;;;;;18.05;44.78;72602.47;4960388;28;20575;-88
2021/04/25 04:31:51;;;;;;;15.73;10.07;;;;;;;16.90;45.16;72469.53;4976382;28;20457;-85
2021/04/25 04:34:22;;;;;;;20.35;10.05;;;;;;;19.80;43.72;72804.47;4974162;28;20039;-86
2021/04/25 04:36:50;;;;;;;13.82;9.85;;;;;;;20.03;43.62;72831.44;4973713;28;20065;-85
2021/04/25 04:39:20;;;;;;;12.98;9.20;;;;;;;18.69;44.12;72673.97;4975439;28;20031;-84
2021/04/25 04:41:53;;;;;;;12.43;8.50;;;;;;;20.23;43.52;72849.28;4958221;28;20703;-84
2021/04/25 04:44:25;;;;;;;11.77;8.70;;;;;;;17.98;44.11;72594.06;4957864;28;20066;-84
2021/04/25 04:47:09;;;;;;;16.13;9.57;;;;;;;19.03;43.16;72712.94;4967896;28;20031;-84
2021/04/25 04:49:40;;;;;;;14.70;9.60;;;;;;;18.01;44.05;72597.66;4976047;28;20031;-85
2021/04/25 04:52:11;;;;;;;12.45;9.38;;;;;;;18.74;44.61;72682.75;4957610;28;20030;-83
2021/04/25 04:54:41;;;;;;;11.23;9.13;;;;;;;19.94;45.19;72820.63;4974946;28;20030;-88
2021/04/25 04:57:08;;;;;;;15.68;9.23;;;;;;;19.15;44.94;72726.72;4954964;28;20057;-85
2021/04/25 04:59:35;;;;;;;20.58;10.13;;;;;;;18.74;44.61;72679.94;4973591;28;20031;-85
2021/04/25 05:02:02;;;;;;;11.43;9.45;;;;;;;19.03;44.49;72715.72;4960162;28;20074;-85
2021/04/25 05:04:28;;;;;;;17.83;9.80;;;;;;;19.51;44.64;72768.69;4987699;28;20030;-88
2021/04/25 05:07:04;;;;;;;14.93;10.02;;;;;;;19.47;45.28;72766.69;4987046;28;20497;-90
2021/04/25 05:09:31;;;;;;;16.88;10.10;;;;;;;18.77;45.08;72682.38;4961192;28;20125;-90
2021/04/25 05:12:05;;;;;;;16.92;10.55;;;;;;;19.44;44.54;72763.09;4958452;29;20019;-88
2021/04/25 05:15:06;;;;;;;15.90;10.23;;;;;;;19.89;43.64;72815.25;4979891;28;20030;-89
2021/04/25 05:17:41;;;;;;;11.85;9.82;;;;;;;17.61;43.40;72546.59;4964755;28;20047;-90
2021/04/25 05:20:10;;;;;;;18.45;10.02;;;;;;;19.26;42.59;72742.09;4947922;28;20043;-89
2021/04/25 05:22:41;;;;;;;12.00;8.88;;;;;;;20.01;42.11;72829.06;4964785;28;20045;-88
2021/04/25 05:25:24;;;;;;;14.23;9.00;;;;;;;19.59;41.76;72780.47;4976630;28;20519;-89
2021/04/25 05:27:55;;;;;;;13.52;9.73;;;;;;;19.59;43.25;72774.28;4969183;28;20066;-87
2021/04/25 05:30:27;;;;;;;11.20;9.00;;;;;;;17.64;42.24;72552.97;4959616;28;20484;-88
2021/04/25 05:32:56;;;;;;;13.75;8.90;;;;;;;19.82;42.03;72807.47;4954632;28;20029;-87
2021/04/25 05:35:34;;;;;;;14.90;8.45;;;;;;;17.81;40.81;72572.13;4978378;28;20918;-91
2021/04/25 05:38:02;;;;;;;10.63;6.70;;;;;;;18.78;40.84;72683.56;4977121;28;20109;-89
2021/04/25 05:40:52;;;;;;;12.75;7.38;;;;;;;20.20;41.10;72845.06;4960933;28;20027;-91
2021/04/25 05:43:23;;;;;;;11.82;7.38;;;;;;;18.91;41.71;72698.53;4979599;28;20031;-88
2021/04/25 05:45:57;;;;;;;10.25;8.07;;;;;;;19.99;40.28;72826.66;4980568;28;20472;-87
2021/04/25 05:51:54;;;;;;;9.43;8.15;;;;;;;20.28;39.72;72857.47;4965809;28;20129;-85
2021/04/25 05:54:29;;;;;;;10.80;6.80;;;;;;;19.09;39.00;72722.31;4971113;28;20074;-88
2021/04/25 05:56:56;;;;;;;14.80;7.65;;;;;;;19.66;39.14;72788.25;4971693;28;20394;-85
2021/04/25 05:59:28;;;;;;;10.40;7.45;;;;;;;19.18;38.10;72732.53;4950004;28;20027;-86
2021/04/25 06:01:55;;;;;;;10.98;7.18;;;;;;;20.35;37.94;72868.66;4957274;28;20055;-86
2021/04/25 06:04:23;;;;;;;13.45;6.88;;;;;;;19.72;38.13;72792.66;4966008;28;20034;-85
2021/04/25 06:06:58;;;;;;;15.25;7.40;;;;;;;20.06;37.03;72832.28;4983138;28;20027;-86
2021/04/25 06:09:41;;;;;;;14.15;6.43;;;;;;;21.11;36.67;72956.28;4948362;28;20091;-86
2021/04/25 06:12:52;;;;;;;8.77;6.78;;;;;;;20.16;36.49;72845.84;4953569;28;20620;-86
2021/04/25 06:15:21;;;;;;;13.60;6.43;;;;;;;20.60;37.22;72891.84;4946591;28;20447;-86
2021/04/25 06:17:50;;;;;;;9.07;6.47;;;;;;;19.09;38.24;72719.53;4972062;28;20042;-86
2021/04/25 06:20:19;;;;;;;11.32;7.30;;;;;;;20.53;38.72;72889.03;4967024;28;20051;-87
2021/04/25 06:23:21;;;;;;;13.52;7.65;;;;;;;19.03;38.80;72712.34;4938260;29;20524;-87
2021/04/25 06:26:23;;;;;;;10.75;6.70;;;;;;;19.02;40.28;72708.97;4950644;29;20047;-86
2021/04/25 06:29:08;;;;;;;16.40;7.90;;;;;;;19.23;39.93;72736.31;4950258;29;20043;-86
2021/04/25 06:31:39;;;;;;;11.18;7.30;;;;;;;19.29;39.62;72740.13;4913903;29;20048;-86
2021/04/25 06:34:41;;;;;;;10.07;6.55;;;;;;;18.49;40.06;72652.78;4930903;29;20114;-87
2021/04/25 06:37:11;;;;;;;11.55;7.28;;;;;;;18.23;39.90;72622.84;4929072;29;20044;-86
2021/04/25 06:40:08;;;;;;;14.43;8.32;;;;;;;19.23;41.05;72732.91;4929200;29;20028;-87
2021/04/25 06:42:44;;;;;;;15.95;7.65;;;;;;;20.25;41.00;72853.84;4917769;29;20047;-87
2021/04/25 06:45:24;;;;;;;11.05;7.00;;;;;;;18.27;40.95;72628.25;4917519;29;20059;-85
2021/04/25 06:48:09;;;;;;;12.45;8.25;;;;;;;20.12;41.81;72841.66;4932688;29;20031;-87
2021/04/25 06:50:48;;;;;;;8.98;7.22;;;;;;;20.62;42.29;72899.84;4916455;29;20446;-87
2021/04/25 06:53:20;;;;;;;9.10;7.55;;;;;;;20.36;42.77;72861.47;4916573;29;20032;-88
2021/04/25 06:56:05;;;;;;;15.77;8.38;;;;;;;19.28;43.61;72745.09;4917185;29;20067;-86
2021/04/25 06:58:48;;;;;;;15.40;8.35;;;;;;;18.64;44.24;72667.97;4932306;29;20055;-86
2021/04/25 07:01:29;;;;;;;13.05;7.38;;;;;;;20.02;44.59;72827.47;4924509;29;20031;-88
2021/04/25 07:04:04;;;;;;;14.68;7.18;;;;;;;17.55;45.07;72544.38;4920109;29;20533;-86
2021/04/25 07:06:49;;;;;;;15.15;8.88;;;;;;;19.76;44.89;72794.06;4936982;29;20031;-89
2021/04/25 07:09:40;;;;;;;9.13;7.43;;;;;;;19.60;45.51;72778.28;4928526;29;20046;-90
2021/04/25 07:13:03;;;;;;;12.25;7.75;;;;;;;18.48;46.21;72646.03;4948724;29;20062;-94
2021/04/25 07:15:31;;;;;;;14.23;8.35;;;;;;;19.70;45.41;72793.06;4953332;29;20082;-89
2021/04/25 07:18:07;;;;;;;20.92;7.45;;;;;;;19.28;45.08;72744.50;4969457;29;20086;-87
2021/04/25 07:20:43;;;;;;;10.10;7.72;;;;;;;19.83;44.52;72808.66;4949138;28;20055;-92
2021/04/25 07:23:10;;;;;;;12.18;7.05;;;;;;;18.56;44.07;72661.78;4968774;28;20054;-86
2021/04/25 07:25:37;;;;;;;13.90;8.10;;;;;;;20.22;44.14;72853.06;4977415;28;20118;-86
2021/04/25 07:28:04;;;;;;;8.05;6.95;;;;;;;19.28;44.56;72742.31;4967916;28;20652;-86
2021/04/25 07:30:32;;;;;;;14.63;9.85;;;;;;;18.94;45.19;72705.53;4970702;28;20031;-87
2021/04/25 07:32:59;;;;;;;9.98;7.72;;;;;;;19.67;44.81;72784.47;4983730;28;20035;-91
2021/04/25 07:35:27;;;;;;;17.63;7.47;;;;;;;20.34;44.52;72867.44;4977861;28;20030;-90
2021/04/25 07:37:53;;;;;;;11.52;7.28;;;;;;;20.27;44.52;72853.47;4949937;29;20042;-88
2021/04/25 07:40:20;;;;;;;13.80;8.23;;;;;;;19.38;44.61;72750.31;4942938;29;20031;-89
2021/04/25 07:42:47;;;;;;;8.57;6.47;;;;;;;20.23;44.49;72851.47;4958110;28;20127;-85
2021/04/25 07:45:15;;;;;;;10.23;7.07;;;;;;;20.31;44.15;72858.25;4974758;28;20031;-86
2021/04/25 07:47:48;;;;;;;15.60;8.27;;;;;;;19.70;44.13;72790.28;4977031;28;20171;-85
2021/04/25 07:50:36;;;;;;;9.77;6.53;;;;;;;20.22;44.10;72850.84;4976521;28;20113;-88
2021/04/25 07:53:07;;;;;;;12.80;7.45;;;;;;;18.46;44.29;72647.00;4978878;28;20046;-94
2021/04/25 07:56:05;;;;;;;15.63;6.60;;;;;;;19.69;44.59;72791.88;4964481;28;20063;-94
2021/04/25 07:58:33;;;;;;;12.07;7.68;;;;;;;19.15;45.07;72730.09;4972277;28;20043;-87
2021/04/25 08:00:59;;;;;;;14.20;6.40;;;;;;;19.45;45.58;72763.69;4976757;28;20031;-86
2021/04/25 08:03:27;;;;;;;9.27;5.68;;;;;;;20.05;45.21;72833.25;4973653;28;20038;-86
2021/04/25 08:06:13;;;;;;;10.48;6.43;;;;;;;20.01;44.80;72826.28;4974432;28;20027;-86
2021/04/25 08:08:48;;;;;;;10.32;5.78;;;;;;;19.25;44.63;72738.72;4962220;29;20047;-91
2021/04/25 08:11:19;;;;;;;12.48;7.30;;;;;;;19.83;45.29;72805.88;4942263;29;20035;-89
2021/04/25 08:13:46;;;;;;;9.98;6.07;;;;;;;19.95;44.97;72816.88;4951556;28;20070;-86
2021/04/25 08:16:13;;;;;;;12.73;6.50;;;;;;;19.31;44.95;72744.72;4948446;28;20090;-83
2021/04/25 08:18:40;;;;;;;11.63;6.05;;;;;;;18.89;44.77;72699.53;4955659;28;20043;-89
2021/04/25 08:21:10;;;;;;;13.70;6.47;;;;;;;19.97;44.92;72821.47;4986140;28;20051;-90
2021/04/25 08:23:38;;;;;;;10.50;5.75;;;;;;;18.92;44.96;72703.13;4965539;28;20030;-90
2021/04/25 08:26:05;;;;;;;9.52;5.72;;;;;;;19.95;44.80;72822.47;4960359;28;20049;-91
2021/04/25 08:28:32;;;;;;;7.38;5.55;;;;;;;18.77;46.15;72685.75;4963567;28;20031;-93
2021/04/25 08:30:59;;;;;;;12.68;6.20;;;;;;;17.16;45.90;72500.06;4970128;28;20023;-90
2021/04/25 08:33:26;;;;;;;10.07;5.25;;;;;;;17.28;45.93;72510.47;4973416;28;20027;-91
2021/04/25 08:35:53;;;;;;;16.55;6.05;;;;;;;19.53;46.20;72771.09;4985569;28;20587;-92
2021/04/25 08:38:20;;;;;;;9.65;5.22;;;;;;;19.00;46.54;72712.72;4983926;28;20038;-89
2021/04/25 08:40:48;;;;;;;13.05;6.22;;;;;;;19.46;46.36;72762.69;4991782;28;20026;-90
2021/04/25 08:43:15;;;;;;;12.50;5.78;;;;;;;19.35;45.63;72752.88;4997737;28;20027;-91
2021/04/25 08:45:46;;;;;;;12.52;4.90;;;;;;;18.77;46.64;72685.16;4988822;28;20477;-91
2021/04/25 08:48:15;;;;;;;8.68;5.88;;;;;;;17.23;45.61;72505.66;4984625;28;20026;-92
2021/04/25 08:50:42;;;;;;;12.93;5.35;;;;;;;19.42;45.18;72755.09;4966075;28;20385;-91
2021/04/25 08:53:11;;;;;;;9.95;4.82;;;;;;;19.57;45.10;72778.06;4980987;28;20026;-91
2021/04/25 08:55:39;;;;;;;14.13;5.72;;;;;;;18.74;43.66;72679.38;4960556;28;20030;-91
2021/04/25 08:58:06;;;;;;;7.38;4.32;;;;;;;19.32;44.45;72745.91;4962286;28;20031;-90
2021/04/25 09:00:33;;;;;;;13.35;4.60;;;;;;;19.79;43.85;72798.28;4963093;28;20043;-92
2021/04/25 09:03:00;;;;;;;4.85;4.05;;;;;;;18.94;43.98;72699.94;4947521;28;20551;-93
2021/04/25 09:05:27;;;;;;;11.82;4.97;;;;;;;18.82;44.34;72686.16;4979596;28;20026;-90
2021/04/25 09:07:57;;;;;;;12.68;5.00;;;;;;;19.63;44.60;72785.28;4979294;28;20492;-93
2021/04/25 09:10:32;;;;;;;9.82;4.47;;;;;;;18.22;43.47;72616.66;4965233;28;20086;-94
2021/04/25 09:13:00;;;;;;;6.97;4.43;;;;;;;18.43;43.99;72641.22;4966476;28;20066;-91
2021/04/25 09:15:34;;;;;;;6.80;4.70;;;;;;;18.82;44.15;72688.34;4967991;28;20117;-92
2021/04/25 09:18:37;;;;;;;11.57;4.38;;;;;;;17.14;42.19;72497.06;4966937;28;20435;-94
2021/04/25 09:21:11;;;;;;;11.32;4.65;;;;;;;17.62;42.25;72553.34;4969610;28;20502;-92
2021/04/25 09:23:40;;;;;;;7.93;4.05;;;;;;;18.60;42.62;72666.56;4962556;28;20464;-93
2021/04/25 09:26:11;;;;;;;4.75;3.80;;;;;;;19.60;41.93;72781.06;4984793;28;20110;-91
2021/04/25 09:28:41;;;;;;;9.10;4.55;;;;;;;17.41;41.75;72523.22;4966090;28;20042;-87
2021/04/25 09:31:15;;;;;;;9.48;3.63;;;;;;;19.42;41.14;72757.88;4970579;28;20031;-89
2021/04/25 09:33:59;;;;;;;5.95;4.63;;;;;;;18.72;40.48;72679.75;4988187;28;20030;-89
2021/04/25 09:36:31;;;;;;;7.32;4.40;;;;;;;18.13;40.34;72609.25;4969776;28;20038;-88
2021/04/25 09:39:19;;;;;;;5.35;4.13;;;;;;;18.49;39.66;72650.00;4991863;28;20046;-92
2021/04/25 09:41:47;;;;;;;7.00;3.97;;;;;;;19.50;40.92;72770.25;4974874;28;20066;-91
2021/04/25 09:44:37;;;;;;;9.40;4.03;;;;;;;19.48;41.11;72767.88;4977762;28;20027;-90
2021/04/25 09:47:08;;;;;;;8.60;4.10;;;;;;;17.01;42.66;72477.16;4995798;23;20035;-92
2021/04/25 09:49:45;;;;;;;11.75;4.07;;;;;;;19.27;42.04;72740.50;5066094;23;20413;-93
2021/04/25 09:52:31;;;;;;;8.52;3.92;;;;;;;17.85;41.76;72579.09;4979997;28;20039;-93
2021/04/25 09:55:24;;;;;;;6.03;3.95;;;;;;;19.07;41.22;72717.72;4975214;28;20115;-89
2021/04/25 09:57:57;;;;;;;10.45;4.30;;;;;;;19.13;41.54;72721.53;4940298;29;20040;-93
2021/04/25 10:00:40;;;;;;;10.60;4.03;;;;;;;19.09;43.42;72719.53;4979711;23;20113;-90
2021/04/25 10:03:11;;;;;;;8.57;4.18;;;;;;;19.05;41.17;72712.56;4964852;28;20027;-88
2021/04/25 10:05:40;;;;;;;10.13;3.53;;;;;;;18.04;41.93;72598.47;4955704;29;20027;-88
2021/04/25 10:08:09;;;;;;;8.70;4.60;;;;;;;19.06;42.04;72715.94;4949090;28;20027;-90
2021/04/25 10:11:24;;;;;;;12.98;5.88;;;;;;;16.98;43.36;72473.53;4947560;28;20030;-91
2021/04/25 10:24:46;;;;;;;9.48;5.03;;;;;;;17.59;42.14;72549.75;5005043;23;20081;-93
2021/04/25 10:30:39;;;;;;;8.40;5.40;;;;;;;16.82;41.83;72460.56;5000059;28;20053;-95
2021/04/25 10:33:17;;;;;;;10.15;5.53;;;;;;;18.86;42.09;72696.53;4991908;28;20045;-94
2021/04/25 10:35:59;;;;;;;10.85;4.47;;;;;;;17.52;41.87;72538.59;4983404;28;20026;-93
2021/04/25 10:38:40;;;;;;;12.43;5.63;;;;;;;16.47;41.56;72417.09;4959684;28;20023;-90
2021/04/25 10:41:25;;;;;;;9.77;5.18;;;;;;;18.72;42.34;72676.97;4971702;28;20034;-93
2021/04/25 10:44:03;;;;;;;12.43;5.60;;;;;;;16.65;43.41;72438.03;4981314;28;20094;-92
2021/04/25 10:46:55;;;;;;;8.75;5.00;;;;;;;18.58;43.32;72661.41;4978453;28;20034;-90
2021/04/25 10:49:36;;;;;;;12.70;5.15;;;;;;;17.70;42.24;72562.31;4983567;28;20041;-91
2021/04/25 10:52:32;;;;;;;8.73;4.28;;;;;;;18.60;42.38;72663.78;4971076;28;20014;-89
2021/04/25 10:55:18;;;;;;;7.30;6.00;;;;;;;18.63;41.98;72668.97;4960813;28;20043;-92
2021/04/25 10:57:58;;;;;;;8.35;5.30;;;;;;;18.64;41.65;72670.16;4966786;28;20027;-92
2021/04/25 11:00:38;;;;;;;9.48;6.35;;;;;;;18.64;41.81;72665.19;4973466;28;20023;-88
2021/04/25 11:03:10;;;;;;;8.30;4.82;;;;;;;18.03;41.42;72594.50;4954614;28;20053;-88
2021/04/25 11:05:41;;;;;;;7.00;4.88;;;;;;;18.68;41.01;72672.78;4956185;28;20042;-86
2021/04/25 11:08:15;;;;;;;11.05;5.68;;;;;;;18.67;41.35;72670.97;4957865;28;20101;-87
2021/04/25 11:10:55;;;;;;;9.27;4.97;;;;;;;18.41;41.72;72641.00;4957284;28;20496;-87
2021/04/25 11:13:35;;;;;;;7.43;6.22;;;;;;;18.68;41.77;72672.78;4959282;28;20106;-91
2021/04/25 11:16:18;;;;;;;10.17;5.53;;;;;;;18.65;41.54;72665.81;4965656;28;20045;-91
2021/04/25 11:19:12;;;;;;;13.30;5.45;;;;;;;18.42;42.50;72642.81;4979426;28;20031;-89
2021/04/25 11:21:54;;;;;;;9.48;5.40;;;;;;;18.53;42.49;72654.81;4963472;28;20027;-91
2021/04/25 11:24:29;;;;;;;12.65;4.75;;;;;;;18.23;42.46;72617.28;4959456;28;20046;-90
2021/04/25 11:26:59;;;;;;;10.95;5.32;;;;;;;18.14;42.55;72609.88;4964229;28;20509;-89
2021/04/25 11:29:29;;;;;;;12.80;5.43;;;;;;;18.50;42.72;72651.81;4964718;28;20030;-89
2021/04/25 11:31:58;;;;;;;12.80;5.35;;;;;;;17.88;42.45;72580.50;4969631;28;20027;-91
2021/04/25 11:34:29;;;;;;;11.55;5.70;;;;;;;18.53;42.52;72655.41;4966583;28;20023;-91
2021/04/25 11:37:25;;;;;;;12.98;5.45;;;;;;;18.60;42.53;72663.19;4976579;28;20049;-89
2021/04/25 11:39:56;;;;;;;11.82;5.70;;;;;;;18.52;42.85;72654.19;4978074;28;20042;-91
2021/04/25 11:42:39;;;;;;;15.52;5.15;;;;;;;18.38;42.72;72637.44;4967310;28;20027;-89
2021/04/25 11:45:12;;;;;;;10.23;6.45;;;;;;;18.35;42.46;72633.84;4965752;28;20098;-90
2021/04/25 11:47:50;;;;;;;13.52;5.10;;;;;;;17.92;42.65;72588.09;4966127;28;20066;-92
2021/04/25 11:50:18;;;;;;;11.93;5.18;;;;;;;16.84;42.89;72462.94;4965475;28;20105;-90
2021/04/25 11:52:46;;;;;;;13.38;6.32;;;;;;;18.44;43.05;72648.00;4971780;28;20041;-91
2021/04/25 11:55:18;;;;;;;14.18;6.28;;;;;;;17.91;43.05;72580.72;4970152;28;20058;-90
2021/04/25 11:57:51;;;;;;;8.52;6.88;;;;;;;17.44;42.90;72531.78;4964418;28;20054;-90
2021/04/25 12:00:33;;;;;;;14.52;7.10;;;;;;;17.79;42.91;72572.50;4973604;28;20027;-90
2021/04/25 12:03:03;;;;;;;9.00;5.32;;;;;;;18.14;42.99;72612.66;4951164;28;20031;-93
2021/04/25 12:05:35;;;;;;;13.55;6.60;;;;;;;18.10;42.47;72608.47;4959917;28;20015;-94
2021/04/25 12:08:06;;;;;;;21.23;7.43;;;;;;;18.42;42.85;72642.22;4962512;28;20132;-93